sensor_id;sensor_type;location;lat;lon;timestamp;pressure;altitude;pressure_sealevel;temperature;humidity
3812;BME280;1921;49.368;11.068;2023-06-10T00:01:38;97403.34;;;15.61;84.50
3812;BME280;1921;49.368;11.068;2023-06-10T00:04:04;97409.00;;;15.65;84.71
3812;BME280;1921;49.368;11.068;2023-06-10T00:06:30;97438.03;;;15.76;84.67
3812;BME280;1921;49.368;11.068;2023-06-10T00:09:04;97380.44;;;15.43;84.07
3812;BME280;1921;49.368;11.068;2023-06-10T00:11:32;97434.25;;;15.72;84.71
3812;BME280;1921;49.368;11.068;2023-06-10T00:13:58;97369.16;;;15.36;84.82
3812;BME280;1921;49.368;11.068;2023-06-10T00:16:24;97340.59;;;15.15;84.62
3812;BME280;1921;49.368;11.068;2023-06-10T00:18:50;97429.97;;;15.71;84.82
3812;BME280;1921;49.368;11.068;2023-06-10T00:21:17;97413.34;;;15.46;84.72
3812;BME280;1921;49.368;11.068;2023-06-10T00:23:42;97410.47;;;15.54;84.97
3812;BME280;1921;49.368;11.068;2023-06-10T00:26:09;97376.09;;;15.30;84.82
3812;BME280;1921;49.368;11.068;2023-06-10T00:28:35;97388.78;;;15.33;84.22
3812;BME280;1921;49.368;11.068;2023-06-10T00:31:01;97365.28;;;15.14;84.58
3812;BME280;1921;49.368;11.068;2023-06-10T00:33:27;97395.06;;;15.32;85.30
3812;BME280;1921;49.368;11.068;2023-06-10T00:35:53;97433.53;;;15.52;85.07
3812;BME280;1921;49.368;11.068;2023-06-10T00:38:19;97422.53;;;15.37;84.96
3812;BME280;1921;49.368;11.068;2023-06-10T00:40:44;97427.34;;;15.40;85.31
3812;BME280;1921;49.368;11.068;2023-06-10T00:43:10;97383.44;;;15.15;85.32
3812;BME280;1921;49.368;11.068;2023-06-10T00:45:36;97433.41;;;15.40;85.12
3812;BME280;1921;49.368;11.068;2023-06-10T00:48:02;97380.84;;;15.08;85.67
3812;BME280;1921;49.368;11.068;2023-06-10T00:50:29;97415.50;;;15.30;85.72
3812;BME280;1921;49.368;11.068;2023-06-10T00:52:57;97447.09;;;15.49;85.75
3812;BME280;1921;49.368;11.068;2023-06-10T00:55:23;97380.84;;;15.08;86.11
3812;BME280;1921;49.368;11.068;2023-06-10T00:57:50;97353.09;;;14.88;86.30
3812;BME280;1921;49.368;11.068;2023-06-10T01:00:17;97438.28;;;15.37;86.57
3812;BME280;1921;49.368;11.068;2023-06-10T01:02:43;97408.28;;;15.19;86.84
3812;BME280;1921;49.368;11.068;2023-06-10T01:05:09;97254.91;;;14.19;86.45
3812;BME280;1921;49.368;11.068;2023-06-10T01:07:58;97430.44;;;15.30;86.96
3812;BME280;1921;49.368;11.068;2023-06-10T01:10:43;97429.50;;;15.18;86.79
3812;BME280;1921;49.368;11.068;2023-06-10T01:13:12;97423.06;;;15.14;85.99
3812;BME280;1921;49.368;11.068;2023-06-10T01:15:39;97428.13;;;15.08;86.74
3812;BME280;1921;49.368;11.068;2023-06-10T01:18:07;97385.06;;;14.78;86.54
3812;BME280;1921;49.368;11.068;2023-06-10T01:20:44;97440.72;;;15.00;87.22
3812;BME280;1921;49.368;11.068;2023-06-10T01:23:12;97362.31;;;14.59;87.05
3812;BME280;1921;49.368;11.068;2023-06-10T01:26:28;97366.44;;;14.48;87.25
3812;BME280;1921;49.368;11.068;2023-06-10T01:28:57;97420.97;;;14.84;87.73
3812;BME280;1921;49.368;11.068;2023-06-10T01:31:43;97395.00;;;14.69;88.12
3812;BME280;1921;49.368;11.068;2023-06-10T01:37:39;97412.34;;;14.70;88.16
3812;BME280;1921;49.368;11.068;2023-06-10T01:40:07;97422.63;;;14.72;88.05
3812;BME280;1921;49.368;11.068;2023-06-10T01:42:33;97391.88;;;14.47;87.93
3812;BME280;1921;49.368;11.068;2023-06-10T01:44:59;97376.09;;;14.41;88.19
3812;BME280;1921;49.368;11.068;2023-06-10T01:47:25;97384.38;;;14.38;88.69
3812;BME280;1921;49.368;11.068;2023-06-10T01:49:51;97405.34;;;14.51;89.29
3812;BME280;1921;49.368;11.068;2023-06-10T01:52:17;97391.88;;;14.47;89.74
3812;BME280;1921;49.368;11.068;2023-06-10T01:54:42;97424.66;;;14.70;89.86
3812;BME280;1921;49.368;11.068;2023-06-10T01:57:08;97422.44;;;14.73;90.30
3812;BME280;1921;49.368;11.068;2023-06-10T01:59:34;97415.19;;;14.69;90.57
3812;BME280;1921;49.368;11.068;2023-06-10T02:02:01;97400.50;;;14.61;90.65
3812;BME280;1921;49.368;11.068;2023-06-10T02:04:27;97423.84;;;14.76;91.59
3812;BME280;1921;49.368;11.068;2023-06-10T02:06:53;97394.63;;;14.59;91.01
3812;BME280;1921;49.368;11.068;2023-06-10T02:09:19;97353.91;;;14.37;91.14
3812;BME280;1921;49.368;11.068;2023-06-10T02:11:44;97359.13;;;14.43;91.18
3812;BME280;1921;49.368;11.068;2023-06-10T02:14:10;97380.72;;;14.52;90.94
3812;BME280;1921;49.368;11.068;2023-06-10T02:16:36;97363.16;;;14.46;90.65
3812;BME280;1921;49.368;11.068;2023-06-10T02:19:02;97380.53;;;14.53;90.85
3812;BME280;1921;49.368;11.068;2023-06-10T02:21:31;97391.81;;;14.61;91.05
3812;BME280;1921;49.368;11.068;2023-06-10T02:23:57;97383.31;;;14.59;91.11
3812;BME280;1921;49.368;11.068;2023-06-10T02:26:22;97437.16;;;14.81;91.19
3812;BME280;1921;49.368;11.068;2023-06-10T02:28:48;97384.00;;;14.47;91.40
3812;BME280;1921;49.368;11.068;2023-06-10T02:31:14;97441.81;;;14.79;90.94
3812;BME280;1921;49.368;11.068;2023-06-10T02:33:40;97412.34;;;14.70;91.24
3812;BME280;1921;49.368;11.068;2023-06-10T02:36:06;97392.03;;;14.52;91.42
3812;BME280;1921;49.368;11.068;2023-06-10T02:38:32;97402.50;;;14.59;91.31
3812;BME280;1921;49.368;11.068;2023-06-10T02:40:58;97384.59;;;14.36;91.19
3812;BME280;1921;49.368;11.068;2023-06-10T02:43:23;97412.41;;;14.44;91.33
3812;BME280;1921;49.368;11.068;2023-06-10T02:45:49;97390.88;;;14.28;91.76
3812;BME280;1921;49.368;11.068;2023-06-10T02:48:15;97454.19;;;14.59;92.18
3812;BME280;1921;49.368;11.068;2023-06-10T02:50:41;97384.47;;;14.11;92.56
3812;BME280;1921;49.368;11.068;2023-06-10T02:53:06;97423.31;;;14.34;92.32
3812;BME280;1921;49.368;11.068;2023-06-10T02:55:32;97391.53;;;14.11;92.74
3812;BME280;1921;49.368;11.068;2023-06-10T02:57:58;97425.97;;;14.27;93.18
3812;BME280;1921;49.368;11.068;2023-06-10T03:00:24;97431.84;;;14.23;93.20
3812;BME280;1921;49.368;11.068;2023-06-10T03:02:50;97417.31;;;14.20;93.68
3812;BME280;1921;49.368;11.068;2023-06-10T03:05:16;97373.38;;;13.96;93.80
3812;BME280;1921;49.368;11.068;2023-06-10T03:07:42;97427.41;;;14.30;94.06
3812;BME280;1921;49.368;11.068;2023-06-10T03:10:08;97391.13;;;14.07;94.04
3812;BME280;1921;49.368;11.068;2023-06-10T03:12:34;97433.88;;;14.14;97.01
3812;BME280;1921;49.368;11.068;2023-06-10T03:14:59;97395.16;;;13.90;97.35
3812;BME280;1921;49.368;11.068;2023-06-10T03:17:25;97416.75;;;13.92;98.87
3812;BME280;1921;49.368;11.068;2023-06-10T03:19:51;97407.06;;;13.92;98.84
3812;BME280;1921;49.368;11.068;2023-06-10T03:22:17;97418.94;;;14.08;98.91
3812;BME280;1921;49.368;11.068;2023-06-10T03:24:42;97400.00;;;13.99;99.86
3812;BME280;1921;49.368;11.068;2023-06-10T03:27:12;97437.09;;;14.23;100.00
3812;BME280;1921;49.368;11.068;2023-06-10T03:29:39;97372.78;;;13.87;100.00
3812;BME280;1921;49.368;11.068;2023-06-10T03:32:06;97403.97;;;14.22;100.00
3812;BME280;1921;49.368;11.068;2023-06-10T03:34:32;97440.47;;;14.57;100.00
3812;BME280;1921;49.368;11.068;2023-06-10T03:36:58;97409.34;;;14.67;100.00
3812;BME280;1921;49.368;11.068;2023-06-10T03:39:24;97391.28;;;14.84;100.00
3812;BME280;1921;49.368;11.068;2023-06-10T03:41:50;97437.31;;;15.31;99.15
3812;BME280;1921;49.368;11.068;2023-06-10T03:44:16;97380.41;;;15.18;98.54
3812;BME280;1921;49.368;11.068;2023-06-10T03:46:42;97414.06;;;15.66;98.46
3812;BME280;1921;49.368;11.068;2023-06-10T03:49:08;97431.72;;;16.09;96.50
3812;BME280;1921;49.368;11.068;2023-06-10T03:51:35;97437.06;;;16.39;92.96
3812;BME280;1921;49.368;11.068;2023-06-10T03:54:01;97402.72;;;16.52;90.09
3812;BME280;1921;49.368;11.068;2023-06-10T03:56:27;97402.28;;;16.74;87.01
3812;BME280;1921;49.368;11.068;2023-06-10T03:58:54;97254.84;;;16.07;84.38
3812;BME280;1921;49.368;11.068;2023-06-10T04:01:20;97415.53;;;17.45;84.54
3812;BME280;1921;49.368;11.068;2023-06-10T04:03:47;97391.63;;;17.82;83.79
3812;BME280;1921;49.368;11.068;2023-06-10T04:06:14;97451.16;;;18.60;81.32
3812;BME280;1921;49.368;11.068;2023-06-10T04:08:41;97449.13;;;19.14;79.50
3812;BME280;1921;49.368;11.068;2023-06-10T04:11:07;97447.56;;;19.58;77.58
3812;BME280;1921;49.368;11.068;2023-06-10T04:13:32;97404.28;;;19.81;75.38
3812;BME280;1921;49.368;11.068;2023-06-10T04:15:58;97436.91;;;20.42;73.04
3812;BME280;1921;49.368;11.068;2023-06-10T04:18:24;97431.72;;;20.91;70.82
3812;BME280;1921;49.368;11.068;2023-06-10T04:20:50;97391.88;;;21.08;68.38
3812;BME280;1921;49.368;11.068;2023-06-10T04:23:16;97379.69;;;21.34;66.32
3812;BME280;1921;49.368;11.068;2023-06-10T04:25:42;97432.97;;;21.92;63.85
3812;BME280;1921;49.368;11.068;2023-06-10T04:28:08;97432.03;;;22.08;61.57
3812;BME280;1921;49.368;11.068;2023-06-10T04:30:34;97399.59;;;22.01;61.14
3812;BME280;1921;49.368;11.068;2023-06-10T04:32:59;97386.31;;;22.01;61.21
3812;BME280;1921;49.368;11.068;2023-06-10T04:35:25;97309.56;;;21.57;60.09
3812;BME280;1921;49.368;11.068;2023-06-10T04:37:53;97424.41;;;22.59;58.98
3812;BME280;1921;49.368;11.068;2023-06-10T04:40:19;97387.19;;;22.59;57.75
3812;BME280;1921;49.368;11.068;2023-06-10T04:42:45;97392.38;;;22.91;55.50
3812;BME280;1921;49.368;11.068;2023-06-10T04:45:11;97410.03;;;23.18;55.74
3812;BME280;1921;49.368;11.068;2023-06-10T04:47:37;97409.00;;;23.49;55.58
3812;BME280;1921;49.368;11.068;2023-06-10T04:50:04;97423.41;;;23.84;54.17
3812;BME280;1921;49.368;11.068;2023-06-10T04:52:30;97415.66;;;24.03;53.20
3812;BME280;1921;49.368;11.068;2023-06-10T04:54:57;97427.63;;;24.41;51.85
3812;BME280;1921;49.368;11.068;2023-06-10T04:57:23;97405.16;;;24.57;50.67
3812;BME280;1921;49.368;11.068;2023-06-10T04:59:49;97410.69;;;24.81;49.73
3812;BME280;1921;49.368;11.068;2023-06-10T05:02:15;97441.31;;;24.94;49.53
3812;BME280;1921;49.368;11.068;2023-06-10T05:04:41;97431.34;;;25.15;49.47
3812;BME280;1921;49.368;11.068;2023-06-10T05:07:06;97403.81;;;25.24;48.61
3812;BME280;1921;49.368;11.068;2023-06-10T05:09:32;97438.47;;;25.74;47.94
3812;BME280;1921;49.368;11.068;2023-06-10T05:11:58;97332.56;;;25.20;47.50
3812;BME280;1921;49.368;11.068;2023-06-10T05:14:24;97415.28;;;25.98;46.71
3812;BME280;1921;49.368;11.068;2023-06-10T05:16:50;97401.28;;;26.12;45.85
3812;BME280;1921;49.368;11.068;2023-06-10T05:19:16;97437.41;;;26.62;45.75
3812;BME280;1921;49.368;11.068;2023-06-10T05:21:42;97441.53;;;26.97;45.28
3812;BME280;1921;49.368;11.068;2023-06-10T05:24:08;97451.66;;;27.43;44.16
3812;BME280;1921;49.368;11.068;2023-06-10T05:26:35;97405.88;;;27.58;43.54
3812;BME280;1921;49.368;11.068;2023-06-10T05:29:04;97418.06;;;28.02;42.78
3812;BME280;1921;49.368;11.068;2023-06-10T05:31:30;97428.47;;;28.50;41.18
3812;BME280;1921;49.368;11.068;2023-06-10T05:33:57;97424.50;;;28.61;41.16
3812;BME280;1921;49.368;11.068;2023-06-10T05:36:23;97449.75;;;29.02;40.52
3812;BME280;1921;49.368;11.068;2023-06-10T05:38:50;97429.78;;;28.66;39.48
3812;BME280;1921;49.368;11.068;2023-06-10T05:41:16;97428.88;;;28.85;40.26
3812;BME280;1921;49.368;11.068;2023-06-10T05:43:42;97442.88;;;29.09;40.04
3812;BME280;1921;49.368;11.068;2023-06-10T05:46:08;97441.41;;;29.03;39.59
3812;BME280;1921;49.368;11.068;2023-06-10T05:48:33;97420.00;;;28.43;40.71
3812;BME280;1921;49.368;11.068;2023-06-10T05:50:59;97436.06;;;27.07;43.45
3812;BME280;1921;49.368;11.068;2023-06-10T05:53:25;97406.25;;;27.14;43.54
3812;BME280;1921;49.368;11.068;2023-06-10T05:55:51;97440.53;;;26.16;46.14
3812;BME280;1921;49.368;11.068;2023-06-10T05:58:17;97416.59;;;25.28;47.00
3812;BME280;1921;49.368;11.068;2023-06-10T06:00:43;97391.03;;;24.57;49.35
3812;BME280;1921;49.368;11.068;2023-06-10T06:03:09;97442.50;;;23.40;51.76
3812;BME280;1921;49.368;11.068;2023-06-10T06:05:36;97456.03;;;22.61;55.70
3812;BME280;1921;49.368;11.068;2023-06-10T06:08:09;97414.19;;;21.66;59.00
3812;BME280;1921;49.368;11.068;2023-06-10T06:10:35;97403.75;;;22.76;56.20
3812;BME280;1921;49.368;11.068;2023-06-10T06:13:01;97451.19;;;23.00;55.59
3812;BME280;1921;49.368;11.068;2023-06-10T06:15:27;97444.88;;;22.11;57.72
3812;BME280;1921;49.368;11.068;2023-06-10T06:17:53;97466.13;;;22.16;58.21
3812;BME280;1921;49.368;11.068;2023-06-10T06:20:20;97414.03;;;23.41;53.26
3812;BME280;1921;49.368;11.068;2023-06-10T06:22:46;97431.94;;;22.25;56.64
3812;BME280;1921;49.368;11.068;2023-06-10T06:25:12;97426.69;;;22.40;57.01
3812;BME280;1921;49.368;11.068;2023-06-10T06:27:37;97433.78;;;23.65;52.85
3812;BME280;1921;49.368;11.068;2023-06-10T06:30:04;97471.44;;;25.10;48.56
3812;BME280;1921;49.368;11.068;2023-06-10T06:32:30;97443.53;;;25.36;47.24
3812;BME280;1921;49.368;11.068;2023-06-10T06:34:56;97453.97;;;26.06;44.88
3812;BME280;1921;49.368;11.068;2023-06-10T06:37:23;97469.88;;;26.50;44.17
3812;BME280;1921;49.368;11.068;2023-06-10T06:39:53;97432.41;;;26.98;43.48
3812;BME280;1921;49.368;11.068;2023-06-10T06:42:20;97465.03;;;27.62;42.46
3812;BME280;1921;49.368;11.068;2023-06-10T06:44:46;97423.31;;;28.07;40.73
3812;BME280;1921;49.368;11.068;2023-06-10T06:47:13;97413.75;;;25.92;44.81
3812;BME280;1921;49.368;11.068;2023-06-10T06:49:39;97418.38;;;25.42;46.03
3812;BME280;1921;49.368;11.068;2023-06-10T06:52:05;97433.84;;;25.45;46.06
3812;BME280;1921;49.368;11.068;2023-06-10T06:54:31;97466.75;;;25.80;46.42
3812;BME280;1921;49.368;11.068;2023-06-10T06:56:57;97462.28;;;26.04;45.71
3812;BME280;1921;49.368;11.068;2023-06-10T06:59:23;97415.09;;;25.90;45.63
3812;BME280;1921;49.368;11.068;2023-06-10T07:01:49;97432.16;;;24.25;50.06
3812;BME280;1921;49.368;11.068;2023-06-10T07:04:15;97430.75;;;23.05;52.45
3812;BME280;1921;49.368;11.068;2023-06-10T07:06:41;97413.97;;;22.47;54.41
3812;BME280;1921;49.368;11.068;2023-06-10T07:09:08;97424.69;;;22.63;54.71
3812;BME280;1921;49.368;11.068;2023-06-10T07:11:36;97432.22;;;23.79;51.41
3812;BME280;1921;49.368;11.068;2023-06-10T07:14:02;97454.56;;;23.94;50.27
3812;BME280;1921;49.368;11.068;2023-06-10T07:16:27;97433.00;;;24.10;49.85
3812;BME280;1921;49.368;11.068;2023-06-10T07:18:53;97450.22;;;24.59;48.84
3812;BME280;1921;49.368;11.068;2023-06-10T07:21:19;97389.31;;;22.57;53.65
3812;BME280;1921;49.368;11.068;2023-06-10T07:23:46;97445.78;;;22.79;54.00
3812;BME280;1921;49.368;11.068;2023-06-10T07:26:12;97435.66;;;22.81;54.70
3812;BME280;1921;49.368;11.068;2023-06-10T07:28:40;97426.63;;;22.25;56.83
3812;BME280;1921;49.368;11.068;2023-06-10T07:31:07;97473.34;;;22.63;57.49
3812;BME280;1921;49.368;11.068;2023-06-10T07:33:33;97433.22;;;23.48;54.13
3812;BME280;1921;49.368;11.068;2023-06-10T07:35:59;97416.69;;;24.22;51.47
3812;BME280;1921;49.368;11.068;2023-06-10T07:38:25;97406.25;;;22.98;54.32
3812;BME280;1921;49.368;11.068;2023-06-10T07:40:52;97411.63;;;24.21;51.36
3812;BME280;1921;49.368;11.068;2023-06-10T07:43:18;97438.19;;;25.70;47.55
3812;BME280;1921;49.368;11.068;2023-06-10T07:45:44;97419.94;;;24.99;48.90
3812;BME280;1921;49.368;11.068;2023-06-10T07:48:10;97421.78;;;24.13;50.63
3812;BME280;1921;49.368;11.068;2023-06-10T07:50:36;97430.03;;;22.73;56.22
3812;BME280;1921;49.368;11.068;2023-06-10T07:53:02;97458.31;;;23.98;53.42
3812;BME280;1921;49.368;11.068;2023-06-10T07:55:28;97425.78;;;24.41;50.58
3812;BME280;1921;49.368;11.068;2023-06-10T07:57:54;97437.53;;;24.10;52.05
3812;BME280;1921;49.368;11.068;2023-06-10T08:00:21;97420.50;;;23.85;52.79
3812;BME280;1921;49.368;11.068;2023-06-10T08:02:47;97417.03;;;23.80;51.01
3812;BME280;1921;49.368;11.068;2023-06-10T08:05:13;97454.25;;;24.46;50.95
3812;BME280;1921;49.368;11.068;2023-06-10T08:07:40;97405.19;;;25.17;48.13
3812;BME280;1921;49.368;11.068;2023-06-10T08:10:06;97393.78;;;24.96;48.67
3812;BME280;1921;49.368;11.068;2023-06-10T08:12:34;97422.09;;;24.97;47.74
3812;BME280;1921;49.368;11.068;2023-06-10T08:15:00;97422.84;;;24.12;49.53
3812;BME280;1921;49.368;11.068;2023-06-10T08:17:26;97414.88;;;25.47;48.03
3812;BME280;1921;49.368;11.068;2023-06-10T08:19:52;97430.28;;;26.23;45.49
3812;BME280;1921;49.368;11.068;2023-06-10T08:22:18;97411.13;;;24.13;49.81
3812;BME280;1921;49.368;11.068;2023-06-10T08:24:44;97408.09;;;24.61;48.71
3812;BME280;1921;49.368;11.068;2023-06-10T08:27:09;97421.63;;;24.85;48.51
3812;BME280;1921;49.368;11.068;2023-06-10T08:29:36;97374.38;;;24.85;48.44
3812;BME280;1921;49.368;11.068;2023-06-10T08:32:02;97397.03;;;24.93;47.84
3812;BME280;1921;49.368;11.068;2023-06-10T08:34:28;97451.56;;;25.70;46.82
3812;BME280;1921;49.368;11.068;2023-06-10T08:36:54;97402.84;;;25.49;46.88
3812;BME280;1921;49.368;11.068;2023-06-10T08:39:21;97412.59;;;26.99;42.59
3812;BME280;1921;49.368;11.068;2023-06-10T08:42:14;97464.31;;;25.84;45.17
3812;BME280;1921;49.368;11.068;2023-06-10T08:44:46;97377.72;;;25.16;47.61
3812;BME280;1921;49.368;11.068;2023-06-10T08:47:15;97434.97;;;24.85;48.00
3812;BME280;1921;49.368;11.068;2023-06-10T08:49:44;97416.72;;;24.17;48.98
3812;BME280;1921;49.368;11.068;2023-06-10T08:52:16;97436.88;;;24.64;48.25
3812;BME280;1921;49.368;11.068;2023-06-10T08:54:59;97400.34;;;24.59;46.88
3812;BME280;1921;49.368;11.068;2023-06-10T08:57:26;97409.44;;;24.53;48.14
3812;BME280;1921;49.368;11.068;2023-06-10T08:59:53;97418.31;;;25.03;45.42
3812;BME280;1921;49.368;11.068;2023-06-10T09:02:24;97394.22;;;26.21;42.47
3812;BME280;1921;49.368;11.068;2023-06-10T09:04:50;97417.38;;;28.24;38.83
3812;BME280;1921;49.368;11.068;2023-06-10T09:07:17;97425.06;;;25.84;42.92
3812;BME280;1921;49.368;11.068;2023-06-10T09:09:44;97412.25;;;25.42;43.91
3812;BME280;1921;49.368;11.068;2023-06-10T09:12:12;97408.31;;;25.29;43.98
3812;BME280;1921;49.368;11.068;2023-06-10T09:14:38;97411.53;;;27.38;40.62
3812;BME280;1921;49.368;11.068;2023-06-10T09:17:05;97431.84;;;29.11;37.85
3812;BME280;1921;49.368;11.068;2023-06-10T09:19:32;97399.84;;;30.35;35.11
3812;BME280;1921;49.368;11.068;2023-06-10T09:21:59;97386.31;;;28.92;36.64
3812;BME280;1921;49.368;11.068;2023-06-10T09:24:25;97411.19;;;26.40;41.87
3812;BME280;1921;49.368;11.068;2023-06-10T09:27:06;97393.72;;;25.56;45.04
3812;BME280;1921;49.368;11.068;2023-06-10T09:29:54;97426.16;;;24.79;45.43
3812;BME280;1921;49.368;11.068;2023-06-10T09:32:21;97393.22;;;25.54;45.36
3812;BME280;1921;49.368;11.068;2023-06-10T09:34:47;97412.84;;;24.74;46.94
3812;BME280;1921;49.368;11.068;2023-06-10T09:37:20;97416.38;;;25.58;45.15
3812;BME280;1921;49.368;11.068;2023-06-10T09:40:07;97404.72;;;27.64;40.64
3812;BME280;1921;49.368;11.068;2023-06-10T09:42:35;97416.69;;;26.20;44.16
3812;BME280;1921;49.368;11.068;2023-06-10T09:45:06;97423.09;;;25.56;45.28
3812;BME280;1921;49.368;11.068;2023-06-10T09:47:32;97396.91;;;25.58;44.54
3812;BME280;1921;49.368;11.068;2023-06-10T09:49:58;97439.31;;;25.25;45.84
3812;BME280;1921;49.368;11.068;2023-06-10T09:52:27;97443.84;;;24.55;48.64
3812;BME280;1921;49.368;11.068;2023-06-10T09:54:59;97448.41;;;25.19;47.58
3812;BME280;1921;49.368;11.068;2023-06-10T09:57:26;97427.03;;;25.24;46.88
3812;BME280;1921;49.368;11.068;2023-06-10T09:59:55;97407.72;;;25.76;45.92
3812;BME280;1921;49.368;11.068;2023-06-10T10:02:21;97375.81;;;27.61;39.76
3812;BME280;1921;49.368;11.068;2023-06-10T10:04:47;97433.25;;;28.07;40.38
3812;BME280;1921;49.368;11.068;2023-06-10T10:07:13;97434.91;;;26.47;43.89
3812;BME280;1921;49.368;11.068;2023-06-10T10:09:40;97419.50;;;26.04;43.50
3812;BME280;1921;49.368;11.068;2023-06-10T10:12:15;97458.78;;;26.33;44.57
3812;BME280;1921;49.368;11.068;2023-06-10T10:14:46;97440.88;;;25.31;45.52
3812;BME280;1921;49.368;11.068;2023-06-10T10:17:15;97454.44;;;24.80;46.94
3812;BME280;1921;49.368;11.068;2023-06-10T10:19:48;97412.34;;;25.27;46.03
3812;BME280;1921;49.368;11.068;2023-06-10T10:22:24;97453.41;;;25.80;45.65
3812;BME280;1921;49.368;11.068;2023-06-10T10:24:56;97408.78;;;24.92;45.44
3812;BME280;1921;49.368;11.068;2023-06-10T10:27:38;97444.75;;;25.10;46.90
3812;BME280;1921;49.368;11.068;2023-06-10T10:30:07;97431.34;;;24.50;46.63
3812;BME280;1921;49.368;11.068;2023-06-10T10:33:00;97400.16;;;25.10;46.33
3812;BME280;1921;49.368;11.068;2023-06-10T10:35:32;97437.75;;;25.97;44.42
3812;BME280;1921;49.368;11.068;2023-06-10T10:37:58;97362.81;;;26.79;41.53
3812;BME280;1921;49.368;11.068;2023-06-10T10:40:26;97414.91;;;28.28;39.79
3812;BME280;1921;49.368;11.068;2023-06-10T10:42:55;97439.28;;;28.31;39.61
3812;BME280;1921;49.368;11.068;2023-06-10T10:45:22;97426.38;;;27.49;41.40
3812;BME280;1921;49.368;11.068;2023-06-10T10:47:53;97412.84;;;28.38;39.44
3812;BME280;1921;49.368;11.068;2023-06-10T10:50:20;97414.66;;;28.98;38.93
3812;BME280;1921;49.368;11.068;2023-06-10T10:52:53;97403.34;;;28.46;40.03
3812;BME280;1921;49.368;11.068;2023-06-10T10:55:20;97415.66;;;28.01;40.19
3812;BME280;1921;49.368;11.068;2023-06-10T10:58:06;97442.78;;;28.46;40.02
3812;BME280;1921;49.368;11.068;2023-06-10T11:00:36;97379.75;;;27.50;40.30
3812;BME280;1921;49.368;11.068;2023-06-10T11:05:43;97440.09;;;29.14;38.63
3812;BME280;1921;49.368;11.068;2023-06-10T11:08:13;97393.56;;;28.78;39.04
3812;BME280;1921;49.368;11.068;2023-06-10T11:10:41;97455.13;;;29.02;38.75
3812;BME280;1921;49.368;11.068;2023-06-10T11:13:15;97422.78;;;29.20;37.87
3812;BME280;1921;49.368;11.068;2023-06-10T11:15:49;97442.06;;;28.81;39.51
3812;BME280;1921;49.368;11.068;2023-06-10T11:18:40;97395.75;;;28.89;38.98
3812;BME280;1921;49.368;11.068;2023-06-10T11:21:07;97418.50;;;27.39;41.80
3812;BME280;1921;49.368;11.068;2023-06-10T11:23:34;97410.25;;;26.74;43.72
3812;BME280;1921;49.368;11.068;2023-06-10T11:26:17;97415.00;;;28.23;38.35
3812;BME280;1921;49.368;11.068;2023-06-10T11:31:22;97419.69;;;29.49;36.76
3812;BME280;1921;49.368;11.068;2023-06-10T11:36:25;97402.91;;;28.80;38.95
3812;BME280;1921;49.368;11.068;2023-06-10T11:39:04;97403.50;;;28.22;39.42
3812;BME280;1921;49.368;11.068;2023-06-10T11:41:32;97373.31;;;26.52;41.89
3812;BME280;1921;49.368;11.068;2023-06-10T11:44:08;97441.53;;;26.20;44.83
3812;BME280;1921;49.368;11.068;2023-06-10T11:46:34;97413.56;;;26.13;42.66
3812;BME280;1921;49.368;11.068;2023-06-10T11:49:01;97386.75;;;25.60;44.17
3812;BME280;1921;49.368;11.068;2023-06-10T11:51:40;97410.19;;;26.55;42.56
3812;BME280;1921;49.368;11.068;2023-06-10T11:54:09;97396.16;;;26.15;43.92
3812;BME280;1921;49.368;11.068;2023-06-10T11:56:35;97416.81;;;25.36;45.82
3812;BME280;1921;49.368;11.068;2023-06-10T11:59:06;97371.41;;;24.92;46.23
3812;BME280;1921;49.368;11.068;2023-06-10T12:01:43;97409.84;;;26.62;42.91
3812;BME280;1921;49.368;11.068;2023-06-10T12:04:12;97406.41;;;26.32;43.63
3812;BME280;1921;49.368;11.068;2023-06-10T12:06:50;97382.88;;;26.34;42.00
3812;BME280;1921;49.368;11.068;2023-06-10T12:09:42;97374.47;;;27.26;41.60
3812;BME280;1921;49.368;11.068;2023-06-10T12:12:08;97369.81;;;27.70;40.89
3812;BME280;1921;49.368;11.068;2023-06-10T12:14:56;97384.03;;;29.80;36.78
3812;BME280;1921;49.368;11.068;2023-06-10T12:17:37;97415.66;;;30.68;34.99
3812;BME280;1921;49.368;11.068;2023-06-10T12:20:07;97387.53;;;28.58;38.60
3812;BME280;1921;49.368;11.068;2023-06-10T12:22:42;97404.53;;;27.42;40.76
3812;BME280;1921;49.368;11.068;2023-06-10T12:25:09;97390.16;;;26.95;42.02
3812;BME280;1921;49.368;11.068;2023-06-10T12:27:36;97330.75;;;26.93;40.56
3812;BME280;1921;49.368;11.068;2023-06-10T12:30:04;97386.97;;;26.50;42.59
3812;BME280;1921;49.368;11.068;2023-06-10T12:32:45;97354.38;;;26.48;42.05
3812;BME280;1921;49.368;11.068;2023-06-10T12:35:21;97362.94;;;26.21;42.12
3812;BME280;1921;49.368;11.068;2023-06-10T12:38:01;97343.59;;;26.06;43.60
3812;BME280;1921;49.368;11.068;2023-06-10T12:40:33;97366.47;;;26.17;42.99
3812;BME280;1921;49.368;11.068;2023-06-10T12:43:01;97360.44;;;25.77;43.02
3812;BME280;1921;49.368;11.068;2023-06-10T12:45:31;97386.13;;;26.02;43.22
3812;BME280;1921;49.368;11.068;2023-06-10T12:48:21;97364.22;;;26.00;44.25
3812;BME280;1921;49.368;11.068;2023-06-10T12:50:57;97359.59;;;25.47;44.85
3812;BME280;1921;49.368;11.068;2023-06-10T12:53:25;97368.38;;;25.53;44.85
3812;BME280;1921;49.368;11.068;2023-06-10T12:55:54;97369.84;;;26.27;41.92
3812;BME280;1921;49.368;11.068;2023-06-10T12:58:20;97389.09;;;27.72;40.22
3812;BME280;1921;49.368;11.068;2023-06-10T13:00:47;97355.03;;;28.46;38.20
3812;BME280;1921;49.368;11.068;2023-06-10T13:03:14;97339.94;;;29.00;36.48
3812;BME280;1921;49.368;11.068;2023-06-10T13:05:40;97365.22;;;30.11;34.89
3812;BME280;1921;49.368;11.068;2023-06-10T13:08:08;97359.88;;;29.89;35.49
3812;BME280;1921;49.368;11.068;2023-06-10T13:10:35;97324.50;;;26.84;39.82
3812;BME280;1921;49.368;11.068;2023-06-10T13:13:02;97376.78;;;27.71;40.19
3812;BME280;1921;49.368;11.068;2023-06-10T13:15:31;97333.31;;;27.74;39.74
3812;BME280;1921;49.368;11.068;2023-06-10T13:17:57;97315.44;;;27.50;39.91
3812;BME280;1921;49.368;11.068;2023-06-10T13:20:24;97394.84;;;27.79;40.49
3812;BME280;1921;49.368;11.068;2023-06-10T13:22:49;97353.09;;;27.59;40.16
3812;BME280;1921;49.368;11.068;2023-06-10T13:25:15;97356.66;;;28.01;39.40
3812;BME280;1921;49.368;11.068;2023-06-10T13:27:41;97385.41;;;28.69;38.30